Aérodrome :
LOGIN :

S'inscrire | Disclaimer

   EN    FR    IT 

 










Légende :    VFR   VFR Marginal   IFR   IFR Intensif   IFR Très Intensif
Visi : 
Plafond : 
>= 8 km
>= 3000ft
5 à 8 km
1000 à 3000 ft
1500m à 5 km
500 à 1000 ft
800 à 1500m
200 à 500 ft
< 800m
< 200 ft
Symboles :   Orages  Brouillard  Fortes neiges  Fortes précipitations  Vent > 20 kt
SIGMETs :   Divers  Orages  Givrage  Turbulence  Onde Orograph.  Cendres Volcan.







- Altitude de l'aérodrome : 614 ft
- Code IATA : CRL


EBCI - Charleroi

DERNIER METAR :
  • 220950Z 17013KT 3000 -SN BR FEW006 BKN012 M03/M05 Q1006 TEMPO 1200 SN BKN003

METARs EXPIRÉS :
  • 220920Z 19013KT 9000 BKN013 M03/M06 Q1007 TEMPO 1200 SN BKN003
  • 220850Z 19014KT 9000 SCT014 M03/M06 Q1007 TEMPO 2500 -SN BKN005
  • 220820Z 19015KT 7000 NSC M03/M06 Q1007 TEMPO 2500 -SN BKN005
  • 220750Z 19015KT 6000 NSC M04/M06 Q1008 TEMPO 4000 -SN
  • 220720Z 18014KT 6000 NSC M04/M06 Q1008 TEMPO 4000 -SN

TAF TAF EBCI
Valide du 22 à 06h jusqu'au 23 à 12h UTC


220520Z 2206/2312 18011KT CAVOK
TEMPO 2210/2215 1200 SN BKN005
PROB40
TEMPO 2210/2215 0500 SN BKN002
BECMG 2213/2215 BKN005
PROB30
TEMPO 2214/2302 BKN016
TEMPO 2302/2312 1200 SHSN BKN005
PROB40
TEMPO 2302/2312 0500 SHSN BKN002
BECMG 2310/2312 VRB03KT
Pas de NOTAMs connus pour ce terrain.



MET'MAP, la Météo Aéronautique d'un coup d'oeil ! - Copyright ORBIFLY Décembre 2007 - Disclaimer

ORBIFLY MET'MAP TEAM :

Programmation & Développement : Alexandra Zaïnal
Conception & Développement : Baudouin d'Aumeries
Co-Programmation & Développement : Marc-Olivier Méhu
Soutien technique & logistique : Manuel Goepfert

Contact : metmap@orbifly.com




SOURCES & CREDITS :

   NOAA